createdAt,value
2018-09-29T00:00:27.997Z,1018.00
2018-09-29T00:01:28.701Z,1018.06
2018-09-29T00:02:27.587Z,1018.09
2018-09-29T00:03:29.007Z,1018.05
2018-09-29T00:04:29.392Z,1018.00
2018-09-29T00:05:28.775Z,1018.04
2018-09-29T00:06:30.123Z,1018.12
2018-09-29T00:07:30.317Z,1018.12
2018-09-29T00:08:29.761Z,1018.09
2018-09-29T00:09:31.176Z,1018.11
2018-09-29T00:10:31.462Z,1018.07
2018-09-29T00:11:31.004Z,1018.11
2018-09-29T00:12:31.763Z,1018.05
2018-09-29T00:13:32.175Z,1018.13
2018-09-29T00:14:31.724Z,1018.10
2018-09-29T00:15:32.421Z,1018.12
2018-09-29T00:16:32.802Z,1018.11
2018-09-29T00:17:32.352Z,1018.11
2018-09-29T00:18:33.189Z,1018.14
2018-09-29T00:20:32.820Z,1018.09
2018-09-29T00:21:33.623Z,1018.10
2018-09-29T00:22:33.805Z,1018.10
2018-09-29T00:23:33.345Z,1018.10
2018-09-29T00:24:34.229Z,1018.10
2018-09-29T00:25:34.613Z,1018.04
2018-09-29T00:26:34.343Z,1018.08
2018-09-29T00:27:35.136Z,1018.04
2018-09-29T00:28:35.626Z,1018.10
2018-09-29T00:29:35.371Z,1018.09
2018-09-29T00:30:36.381Z,1018.09
2018-09-29T00:31:36.348Z,1018.12
2018-09-29T00:32:36.077Z,1018.22
2018-09-29T00:33:37.046Z,1018.19
2018-09-29T00:34:37.237Z,1018.23
2018-09-29T00:35:36.929Z,1018.15
2018-09-29T00:36:37.971Z,1018.18
2018-09-29T00:37:37.973Z,1018.15
2018-09-29T00:38:37.161Z,1018.13
2018-09-29T00:39:38.156Z,1018.09
2018-09-29T00:40:38.408Z,1018.08
2018-09-29T00:41:38.069Z,1018.08
2018-09-29T00:42:38.981Z,1018.09
2018-09-29T00:43:39.568Z,1018.04
2018-09-29T00:44:38.701Z,1018.04
2018-09-29T00:45:39.752Z,1018.04
2018-09-29T00:46:39.700Z,1017.98
2018-09-29T00:47:39.216Z,1018.03
2018-09-29T00:48:40.241Z,1018.00
2018-09-29T00:49:40.067Z,1018.03
2018-09-29T00:50:39.638Z,1018.15
2018-09-29T00:51:40.635Z,1017.99
2018-09-29T00:52:41.192Z,1018.03
2018-09-29T00:53:40.084Z,1018.02
2018-09-29T00:54:41.474Z,1017.94
2018-09-29T00:55:41.814Z,1018.10
2018-09-29T00:56:41.318Z,1018.12
2018-09-29T00:57:42.191Z,1018.05
2018-09-29T00:58:42.441Z,1018.11
2018-09-29T00:59:41.892Z,1018.07
2018-09-29T01:00:43.328Z,1018.05
2018-09-29T01:01:43.693Z,1018.04
2018-09-29T01:02:43.102Z,1018.00
2018-09-29T01:03:44.325Z,1018.02
2018-09-29T01:04:44.561Z,1018.05
2018-09-29T01:05:43.986Z,1017.96
2018-09-29T01:06:45.171Z,1017.97
2018-09-29T01:07:45.497Z,1017.97
2018-09-29T01:08:44.929Z,1017.93
2018-09-29T01:09:46.221Z,1018.00
2018-09-29T01:10:46.489Z,1017.93
2018-09-29T01:11:46.081Z,1017.92
2018-09-29T01:12:46.817Z,1018.10
2018-09-29T01:13:47.112Z,1018.04
2018-09-29T01:14:46.515Z,1018.09
2018-09-29T01:15:47.556Z,1017.99
2018-09-29T01:16:47.900Z,1017.94
2018-09-29T01:17:47.286Z,1018.00
2018-09-29T01:18:48.646Z,1017.99
2018-09-29T01:19:49.081Z,1018.00
2018-09-29T01:20:48.629Z,1018.02
2018-09-29T01:21:49.617Z,1018.08
2018-09-29T01:22:49.942Z,1018.04
2018-09-29T01:23:49.697Z,1018.08
2018-09-29T01:24:50.308Z,1018.01
2018-09-29T01:25:50.887Z,1018.00
2018-09-29T01:26:50.159Z,1018.03
2018-09-29T01:27:50.801Z,1018.06
2018-09-29T01:28:51.248Z,1018.05
2018-09-29T01:29:50.976Z,1018.06
2018-09-29T01:30:51.834Z,1018.12
2018-09-29T01:31:52.199Z,1018.07
2018-09-29T01:32:51.854Z,1018.06
2018-09-29T01:33:52.694Z,1018.09
2018-09-29T01:34:53.028Z,1018.05
2018-09-29T01:35:52.645Z,1018.10
2018-09-29T01:36:53.322Z,1018.06
2018-09-29T01:37:53.498Z,1018.15
2018-09-29T01:38:53.110Z,1018.10
2018-09-29T01:39:53.730Z,1018.14
2018-09-29T01:40:54.049Z,1018.12
2018-09-29T01:41:53.667Z,1018.13
2018-09-29T01:42:54.536Z,1018.14
2018-09-29T01:43:54.709Z,1018.14
2018-09-29T01:44:54.532Z,1018.09
2018-09-29T01:45:55.088Z,1018.10
2018-09-29T01:46:55.228Z,1018.10
2018-09-29T01:47:54.743Z,1018.09
2018-09-29T01:48:55.281Z,1018.08
2018-09-29T01:49:55.530Z,1018.08
2018-09-29T01:50:54.951Z,1018.00
2018-09-29T01:51:56.156Z,1018.01
2018-09-29T01:52:56.337Z,1018.03
2018-09-29T01:53:55.870Z,1018.00
2018-09-29T01:54:56.579Z,1018.00
2018-09-29T01:55:56.696Z,1017.86
2018-09-29T01:56:56.256Z,1017.96
2018-09-29T01:57:57.199Z,1017.92
2018-09-29T01:58:57.295Z,1018.07
2018-09-29T01:59:56.823Z,1017.87
2018-09-29T02:00:57.925Z,1017.98
2018-09-29T02:01:57.971Z,1017.93
2018-09-29T02:02:57.531Z,1017.91
2018-09-29T02:03:58.360Z,1017.88
2018-09-29T02:04:58.487Z,1017.94
2018-09-29T02:05:57.753Z,1018.00
2018-09-29T02:06:59.110Z,1017.95
2018-09-29T02:07:59.430Z,1017.96
2018-09-29T02:08:58.641Z,1017.91
2018-09-29T02:09:59.846Z,1017.91
2018-09-29T02:11:00.050Z,1017.95
2018-09-29T02:11:59.341Z,1017.87
2018-09-29T02:13:00.760Z,1017.92
2018-09-29T02:14:00.417Z,1017.95
2018-09-29T02:14:59.787Z,1017.89
2018-09-29T02:16:00.716Z,1017.89
2018-09-29T02:17:01.390Z,1017.82
2018-09-29T02:18:00.802Z,1017.90
2018-09-29T02:19:02.389Z,1017.69
2018-09-29T02:20:02.186Z,1017.84
2018-09-29T02:21:01.921Z,1017.81
2018-09-29T02:22:02.864Z,1017.76
2018-09-29T02:23:02.910Z,1017.81
2018-09-29T02:24:02.590Z,1017.80
2018-09-29T02:25:03.472Z,1017.83
2018-09-29T02:26:03.845Z,1017.78
2018-09-29T02:27:03.932Z,1017.77
2018-09-29T02:28:04.483Z,1017.88
2018-09-29T02:29:04.624Z,1017.78
2018-09-29T02:30:04.451Z,1017.74
2018-09-29T02:31:04.966Z,1017.67
2018-09-29T02:32:04.721Z,1017.72
2018-09-29T02:33:04.937Z,1017.70
2018-09-29T02:34:05.543Z,1017.73
2018-09-29T02:35:05.535Z,1017.76
2018-09-29T02:36:05.822Z,1017.78
2018-09-29T02:37:06.399Z,1017.75
2018-09-29T02:38:06.201Z,1017.78
2018-09-29T02:39:06.581Z,1017.73
2018-09-29T02:40:07.094Z,1017.77
2018-09-29T02:41:07.595Z,1017.75
2018-09-29T02:42:07.219Z,1017.76
2018-09-29T02:43:07.501Z,1017.77
2018-09-29T02:44:07.972Z,1017.74
2018-09-29T02:45:08.014Z,1017.73
2018-09-29T02:46:08.420Z,1017.62
2018-09-29T02:47:08.483Z,1017.68
2018-09-29T02:48:08.147Z,1017.71
2018-09-29T02:49:08.499Z,1017.71
2018-09-29T02:50:09.103Z,1017.76
2018-09-29T02:51:08.921Z,1017.75
2018-09-29T02:52:09.364Z,1017.77
2018-09-29T02:53:09.786Z,1017.73
2018-09-29T02:54:09.964Z,1017.77
2018-09-29T02:55:10.488Z,1017.73
2018-09-29T02:56:10.368Z,1017.75
2018-09-29T02:57:10.503Z,1017.83
2018-09-29T02:58:10.923Z,1017.63
2018-09-29T02:59:11.386Z,1017.73
2018-09-29T03:00:11.585Z,1017.71
2018-09-29T03:01:12.112Z,1017.75
2018-09-29T03:02:11.792Z,1017.73
2018-09-29T03:03:12.106Z,1017.80
2018-09-29T03:04:12.564Z,1017.81
2018-09-29T03:05:12.243Z,1017.71
2018-09-29T03:06:12.795Z,1017.79
2018-09-29T03:07:13.227Z,1017.74
2018-09-29T03:08:12.805Z,1017.75
2018-09-29T03:09:13.454Z,1017.74
2018-09-29T03:10:13.784Z,1017.66
2018-09-29T03:11:14.150Z,1017.70
2018-09-29T03:12:14.680Z,1017.75
2018-09-29T03:13:14.909Z,1017.75
2018-09-29T03:14:14.606Z,1017.76
2018-09-29T03:15:14.921Z,1017.72
2018-09-29T03:16:15.349Z,1017.67
2018-09-29T03:17:15.970Z,1017.64
2018-09-29T03:18:15.536Z,1017.76
2018-09-29T03:19:15.805Z,1017.84
2018-09-29T03:20:15.686Z,1017.76
2018-09-29T03:21:16.144Z,1017.76
2018-09-29T03:22:17.047Z,1017.83
2018-09-29T03:23:16.555Z,1017.75
2018-09-29T03:24:17.674Z,1017.81
2018-09-29T03:25:17.947Z,1017.78
2018-09-29T03:26:18.185Z,1017.72
2018-09-29T03:27:18.523Z,1017.77
2018-09-29T03:28:18.880Z,1017.78
2018-09-29T03:29:18.609Z,1017.78
2018-09-29T03:30:19.754Z,1017.81
2018-09-29T03:31:19.736Z,1017.81
2018-09-29T03:32:19.406Z,1017.85
2018-09-29T03:33:20.403Z,1017.81
2018-09-29T03:34:20.438Z,1017.84
2018-09-29T03:35:20.189Z,1017.83
2018-09-29T03:36:21.199Z,1017.88
2018-09-29T03:37:21.123Z,1017.84
2018-09-29T03:38:20.877Z,1017.75
2018-09-29T03:39:21.823Z,1017.84
2018-09-29T03:40:22.285Z,1017.85
2018-09-29T03:41:22.020Z,1017.79
2018-09-29T03:42:22.997Z,1017.84
2018-09-29T03:43:23.438Z,1017.87
2018-09-29T03:44:22.900Z,1017.90
2018-09-29T03:45:24.324Z,1017.87
2018-09-29T03:46:24.662Z,1017.81
2018-09-29T03:47:24.306Z,1017.91
2018-09-29T03:48:25.379Z,1017.88
2018-09-29T03:49:25.396Z,1017.89
2018-09-29T03:50:24.319Z,1017.96
2018-09-29T03:51:25.831Z,1018.01
2018-09-29T03:52:26.192Z,1017.95
2018-09-29T03:53:25.892Z,1017.98
2018-09-29T03:54:26.676Z,1017.88
2018-09-29T03:55:26.999Z,1017.91
2018-09-29T03:56:26.675Z,1017.87
2018-09-29T03:57:27.563Z,1017.91
2018-09-29T03:58:27.992Z,1017.89
2018-09-29T03:59:27.462Z,1017.88
2018-09-29T04:00:28.764Z,1017.85
2018-09-29T04:01:28.990Z,1017.89
2018-09-29T04:02:28.415Z,1017.80
2018-09-29T04:03:30.381Z,1017.92
2018-09-29T04:04:30.420Z,1017.90
2018-09-29T04:05:29.348Z,1017.94
2018-09-29T04:06:30.599Z,1017.99
2018-09-29T04:07:30.971Z,1017.90
2018-09-29T04:08:30.559Z,1018.01
2018-09-29T04:09:31.380Z,1017.98
2018-09-29T04:10:31.659Z,1017.95
2018-09-29T04:11:31.250Z,1017.97
2018-09-29T04:12:31.974Z,1017.92
2018-09-29T04:13:32.211Z,1017.99
2018-09-29T04:14:31.725Z,1017.99
2018-09-29T04:15:33.304Z,1017.98
2018-09-29T04:16:33.090Z,1017.95
2018-09-29T04:18:33.457Z,1017.91
2018-09-29T04:19:33.812Z,1017.90
2018-09-29T04:20:33.354Z,1017.98
2018-09-29T04:21:34.367Z,1017.90
2018-09-29T04:22:34.678Z,1017.97
2018-09-29T04:23:34.407Z,1017.99
2018-09-29T04:24:35.363Z,1018.00
2018-09-29T04:25:36.098Z,1017.88
2018-09-29T04:26:35.368Z,1017.98
2018-09-29T04:27:36.334Z,1017.90
2018-09-29T04:28:37.005Z,1017.97
2018-09-29T04:29:36.154Z,1017.86
2018-09-29T04:30:37.105Z,1017.94
2018-09-29T04:31:37.587Z,1018.02
2018-09-29T04:32:37.247Z,1017.97
2018-09-29T04:33:38.216Z,1017.96
2018-09-29T04:34:38.689Z,1017.90
2018-09-29T04:35:38.325Z,1017.91
2018-09-29T04:36:39.403Z,1017.93
2018-09-29T04:37:39.552Z,1017.92
2018-09-29T04:38:39.099Z,1017.94
2018-09-29T04:39:39.970Z,1017.90
2018-09-29T04:40:40.452Z,1017.96
2018-09-29T04:41:39.899Z,1017.97
2018-09-29T04:42:41.230Z,1017.93
2018-09-29T04:43:41.646Z,1017.96
2018-09-29T04:44:41.164Z,1017.97
2018-09-29T04:45:41.945Z,1018.00
2018-09-29T04:46:42.234Z,1018.00
2018-09-29T04:47:41.604Z,1018.01
2018-09-29T04:48:42.833Z,1018.06
2018-09-29T04:49:43.113Z,1018.02
2018-09-29T04:50:42.484Z,1017.98
2018-09-29T04:51:44.102Z,1017.99
2018-09-29T04:52:43.831Z,1018.00
2018-09-29T04:53:43.282Z,1017.93
2018-09-29T04:54:44.342Z,1018.05
2018-09-29T04:55:44.669Z,1017.97
2018-09-29T04:56:44.081Z,1017.92
2018-09-29T04:57:45.182Z,1017.94
2018-09-29T04:58:45.408Z,1017.99
2018-09-29T04:59:44.851Z,1017.92
2018-09-29T05:00:45.827Z,1017.96
2018-09-29T05:01:47.007Z,1017.99
2018-09-29T05:02:45.893Z,1018.00
2018-09-29T05:03:46.973Z,1018.01
2018-09-29T05:04:47.012Z,1017.99
2018-09-29T05:05:46.559Z,1017.94
2018-09-29T05:06:47.164Z,1017.96
2018-09-29T05:07:47.483Z,1017.98
2018-09-29T05:08:46.821Z,1017.90
2018-09-29T05:09:47.993Z,1017.92
2018-09-29T05:10:48.621Z,1017.94
2018-09-29T05:11:47.698Z,1017.98
2018-09-29T05:12:48.284Z,1017.92
2018-09-29T05:13:48.719Z,1017.97
2018-09-29T05:14:47.926Z,1017.95
2018-09-29T05:15:48.610Z,1017.96
2018-09-29T05:16:49.103Z,1018.00
2018-09-29T05:17:48.073Z,1017.97
2018-09-29T05:18:49.354Z,1018.07
2018-09-29T05:19:49.800Z,1017.99
2018-09-29T05:20:49.460Z,1018.08
2018-09-29T05:21:50.168Z,1018.01
2018-09-29T05:22:50.543Z,1018.11
2018-09-29T05:23:50.299Z,1018.06
2018-09-29T05:24:51.133Z,1018.22
2018-09-29T05:25:51.452Z,1018.20
2018-09-29T05:26:51.183Z,1018.21
2018-09-29T05:27:52.036Z,1018.18
2018-09-29T05:28:52.413Z,1018.13
2018-09-29T05:29:52.066Z,1018.26
2018-09-29T05:30:52.983Z,1018.24
2018-09-29T05:31:53.261Z,1018.31
2018-09-29T05:32:52.860Z,1018.31
2018-09-29T05:33:53.600Z,1018.22
2018-09-29T05:34:53.886Z,1018.20
2018-09-29T05:35:53.528Z,1018.37
2018-09-29T05:36:54.310Z,1018.31
2018-09-29T05:37:54.487Z,1018.34
2018-09-29T05:38:54.041Z,1018.33
2018-09-29T05:39:54.820Z,1018.46
2018-09-29T05:40:55.052Z,1018.37
2018-09-29T05:41:54.604Z,1018.41
2018-09-29T05:42:55.328Z,1018.43
2018-09-29T05:43:55.612Z,1018.39
2018-09-29T05:44:55.059Z,1018.41
2018-09-29T05:45:56.178Z,1018.44
2018-09-29T05:46:56.385Z,1018.52
2018-09-29T05:47:55.808Z,1018.47
2018-09-29T05:48:57.056Z,1018.42
2018-09-29T05:49:57.227Z,1018.45
2018-09-29T05:50:56.686Z,1018.45
2018-09-29T05:51:57.441Z,1018.44
2018-09-29T05:52:57.647Z,1018.44
2018-09-29T05:53:57.244Z,1018.44
2018-09-29T05:54:57.848Z,1018.46
2018-09-29T05:55:58.039Z,1018.47
2018-09-29T05:56:57.512Z,1018.47
2018-09-29T05:57:58.781Z,1018.49
2018-09-29T05:59:58.373Z,1018.49
2018-09-29T06:00:59.297Z,1018.52
2018-09-29T06:01:59.310Z,1018.52
2018-09-29T06:02:58.854Z,1018.51
2018-09-29T06:03:59.772Z,1018.51
2018-09-29T06:05:00.031Z,1018.51
2018-09-29T06:05:59.568Z,1018.51
2018-09-29T06:07:00.512Z,1018.52
2018-09-29T06:08:00.567Z,1018.53
2018-09-29T06:09:00.119Z,1018.55
2018-09-29T06:10:01.231Z,1018.55
2018-09-29T06:11:01.062Z,1018.53
2018-09-29T06:12:00.486Z,1018.55
2018-09-29T06:13:01.927Z,1018.56
2018-09-29T06:14:01.635Z,1018.57
2018-09-29T06:15:01.160Z,1018.58
2018-09-29T06:16:01.941Z,1018.60
2018-09-29T06:17:02.264Z,1018.59
2018-09-29T06:18:01.895Z,1018.61
2018-09-29T06:19:03.161Z,1018.61
2018-09-29T06:20:02.747Z,1018.60
2018-09-29T06:21:02.494Z,1018.60
2018-09-29T06:22:03.163Z,1018.61
2018-09-29T06:23:03.682Z,1018.60
2018-09-29T06:24:03.955Z,1018.58
2018-09-29T06:25:04.437Z,1018.58
2018-09-29T06:26:04.880Z,1018.59
2018-09-29T06:27:05.155Z,1018.59
2018-09-29T06:28:05.592Z,1018.57
2018-09-29T06:29:06.046Z,1018.57
2018-09-29T06:30:06.229Z,1018.56
2018-09-29T06:31:06.711Z,1018.57
2018-09-29T06:32:07.219Z,1018.55
2018-09-29T06:33:07.004Z,1018.55
2018-09-29T06:34:07.210Z,1018.56
2018-09-29T06:35:07.620Z,1018.55
2018-09-29T06:36:07.797Z,1018.55
2018-09-29T06:37:08.130Z,1018.56
2018-09-29T06:38:08.556Z,1018.53
2018-09-29T06:39:08.781Z,1018.51
2018-09-29T06:40:09.346Z,1018.51
2018-09-29T06:41:09.780Z,1018.54
2018-09-29T06:42:09.922Z,1018.55
2018-09-29T06:43:10.353Z,1018.56
2018-09-29T06:44:10.770Z,1018.57
2018-09-29T06:45:10.782Z,1018.59
2018-09-29T06:46:10.921Z,1018.61
2018-09-29T06:47:11.200Z,1018.62
2018-09-29T06:48:11.533Z,1018.62
2018-09-29T06:49:11.805Z,1018.63
2018-09-29T06:50:11.824Z,1018.61
2018-09-29T06:51:11.955Z,1018.62
2018-09-29T06:52:13.020Z,1018.64
2018-09-29T06:53:12.293Z,1018.66
2018-09-29T06:54:12.779Z,1018.65
2018-09-29T06:55:13.077Z,1018.65
2018-09-29T06:56:13.288Z,1018.67
2018-09-29T06:57:13.266Z,1018.68
2018-09-29T06:58:13.893Z,1018.67
2018-09-29T06:59:14.116Z,1018.66
2018-09-29T07:00:14.550Z,1018.65
2018-09-29T07:01:14.914Z,1018.64
2018-09-29T07:02:14.788Z,1018.63
2018-09-29T07:03:15.409Z,1018.61
2018-09-29T07:04:15.662Z,1018.62
2018-09-29T07:05:15.163Z,1018.62
2018-09-29T07:06:15.702Z,1018.62
2018-09-29T07:07:15.830Z,1018.61
2018-09-29T07:08:15.354Z,1018.61
2018-09-29T07:09:15.900Z,1018.59
2018-09-29T07:10:16.233Z,1018.60
2018-09-29T07:11:15.950Z,1018.63
2018-09-29T07:12:16.612Z,1018.61
2018-09-29T07:13:16.944Z,1018.61
2018-09-29T07:14:16.469Z,1018.63
2018-09-29T07:15:17.340Z,1018.66
2018-09-29T07:16:17.579Z,1018.67
2018-09-29T07:17:17.765Z,1018.68
2018-09-29T07:18:17.722Z,1018.70
2018-09-29T07:19:17.967Z,1018.72
2018-09-29T07:20:17.638Z,1018.73
2018-09-29T07:21:18.371Z,1018.74
2018-09-29T07:22:18.783Z,1018.82
2018-09-29T07:23:18.393Z,1018.80
2018-09-29T07:24:19.043Z,1018.81
2018-09-29T07:25:19.544Z,1018.83
2018-09-29T07:26:19.212Z,1018.82
2018-09-29T07:27:20.154Z,1018.84
2018-09-29T07:28:20.921Z,1018.84
2018-09-29T07:29:20.895Z,1018.83
2018-09-29T07:30:21.339Z,1018.85
2018-09-29T07:31:21.858Z,1018.86
2018-09-29T07:32:21.613Z,1018.85
2018-09-29T07:33:22.719Z,1018.94
2018-09-29T07:34:22.711Z,1018.93
2018-09-29T07:35:22.428Z,1018.93
2018-09-29T07:36:26.048Z,1019.02
2018-09-29T07:37:23.692Z,1019.03
2018-09-29T07:38:23.364Z,1019.01
2018-09-29T07:39:24.469Z,1018.99
2018-09-29T07:40:24.413Z,1018.99
2018-09-29T07:41:24.298Z,1018.98
2018-09-29T07:42:25.294Z,1018.87
2018-09-29T07:43:25.655Z,1018.99
2018-09-29T07:44:25.815Z,1018.94
2018-09-29T07:45:26.310Z,1018.93
2018-09-29T07:46:26.557Z,1018.84
2018-09-29T07:47:25.635Z,1018.74
2018-09-29T07:48:26.463Z,1018.78
2018-09-29T07:49:26.799Z,1018.77
2018-09-29T07:50:26.597Z,1018.86
2018-09-29T07:51:27.469Z,1018.84
2018-09-29T07:52:27.857Z,1018.83
2018-09-29T07:53:27.434Z,1018.71
2018-09-29T07:54:29.264Z,1018.70
2018-09-29T07:55:29.250Z,1018.67
2018-09-29T07:56:27.703Z,1018.68
2018-09-29T07:57:29.795Z,1018.70
2018-09-29T07:58:29.591Z,1018.79
2018-09-29T07:59:28.412Z,1018.72
2018-09-29T08:00:29.717Z,1018.77
2018-09-29T08:01:29.987Z,1018.70
2018-09-29T08:02:29.413Z,1018.73
2018-09-29T08:03:30.884Z,1018.76
2018-09-29T08:04:31.221Z,1018.73
2018-09-29T08:05:30.739Z,1018.74
2018-09-29T08:06:32.116Z,1018.84
2018-09-29T08:07:32.466Z,1018.77
2018-09-29T08:08:31.771Z,1018.72
2018-09-29T08:09:32.985Z,1018.74
2018-09-29T08:10:33.385Z,1018.76
2018-09-29T08:11:32.912Z,1018.75
2018-09-29T08:12:33.887Z,1018.74
2018-09-29T08:13:34.224Z,1018.80
2018-09-29T08:14:33.888Z,1018.79
2018-09-29T08:15:34.806Z,1018.68
2018-09-29T08:16:35.208Z,1018.66
2018-09-29T08:17:34.953Z,1018.69
2018-09-29T08:18:36.052Z,1018.66
2018-09-29T08:19:36.030Z,1018.61
2018-09-29T08:20:35.753Z,1018.70
2018-09-29T08:21:36.727Z,1018.66
2018-09-29T08:22:37.147Z,1018.59
2018-09-29T08:23:36.794Z,1018.63
2018-09-29T08:24:37.741Z,1018.67
2018-09-29T08:25:38.400Z,1018.64
2018-09-29T08:26:37.620Z,1018.59
2018-09-29T08:27:38.557Z,1018.66
2018-09-29T08:28:39.340Z,1018.66
2018-09-29T08:29:38.170Z,1018.68
2018-09-29T08:30:38.981Z,1018.64
2018-09-29T08:31:39.572Z,1018.67
2018-09-29T08:32:38.651Z,1018.70
2018-09-29T08:33:39.799Z,1018.63
2018-09-29T08:34:39.895Z,1018.65
2018-09-29T08:35:39.108Z,1018.62
2018-09-29T08:36:39.985Z,1018.65
2018-09-29T08:37:40.547Z,1018.61
2018-09-29T08:38:39.729Z,1018.62
2018-09-29T08:39:41.098Z,1018.64
2018-09-29T08:40:41.481Z,1018.64
2018-09-29T08:41:40.969Z,1018.66
2018-09-29T08:42:41.920Z,1018.71
2018-09-29T08:43:42.246Z,1018.58
2018-09-29T08:44:44.729Z,1018.53
2018-09-29T08:45:46.827Z,1018.52
2018-09-29T08:46:43.510Z,1018.55
2018-09-29T08:47:43.039Z,1018.48
2018-09-29T08:48:46.673Z,1018.50
2018-09-29T08:49:44.400Z,1018.45
2018-09-29T08:50:43.378Z,1018.48
2018-09-29T08:51:44.506Z,1018.51
2018-09-29T08:52:44.756Z,1018.47
2018-09-29T08:53:44.156Z,1018.50
2018-09-29T08:54:45.485Z,1018.38
2018-09-29T08:55:45.774Z,1018.49
2018-09-29T08:56:45.264Z,1018.45
2018-09-29T08:57:45.980Z,1018.47
2018-09-29T08:58:46.356Z,1018.46
2018-09-29T08:59:45.641Z,1018.42
2018-09-29T09:00:47.027Z,1018.41
2018-09-29T09:01:47.278Z,1018.44
2018-09-29T09:02:46.840Z,1018.38
2018-09-29T09:03:47.678Z,1018.31
2018-09-29T09:04:47.780Z,1018.40
2018-09-29T09:05:47.199Z,1018.37
2018-09-29T09:06:48.471Z,1018.38
2018-09-29T09:07:48.788Z,1018.38
2018-09-29T09:08:48.227Z,1018.39
2018-09-29T09:09:49.498Z,1018.36
2018-09-29T09:10:49.979Z,1018.26
2018-09-29T09:11:49.516Z,1018.34
2018-09-29T09:12:50.546Z,1018.32
2018-09-29T09:13:50.425Z,1018.24
2018-09-29T09:14:56.070Z,1018.28
2018-09-29T09:15:51.117Z,1018.29
2018-09-29T09:16:51.547Z,1018.29
2018-09-29T09:17:51.144Z,1018.24
2018-09-29T09:18:52.065Z,1018.30
2018-09-29T09:19:52.424Z,1018.28
2018-09-29T09:20:52.074Z,1018.31
2018-09-29T09:21:52.885Z,1018.29
2018-09-29T09:22:53.291Z,1018.19
2018-09-29T09:23:52.860Z,1018.27
2018-09-29T09:24:53.842Z,1018.29
2018-09-29T09:25:53.588Z,1018.21
2018-09-29T09:26:53.197Z,1018.30
2018-09-29T09:27:54.066Z,1018.20
2018-09-29T09:28:54.410Z,1018.31
2018-09-29T09:29:54.080Z,1018.29
2018-09-29T09:30:54.724Z,1018.25
2018-09-29T09:32:54.261Z,1018.21
2018-09-29T09:33:55.018Z,1018.21
2018-09-29T09:34:55.515Z,1018.14
2018-09-29T09:35:55.042Z,1018.11
2018-09-29T09:36:55.644Z,1018.17
2018-09-29T09:37:55.928Z,1018.16
2018-09-29T09:38:55.296Z,1018.23
2018-09-29T09:39:56.786Z,1018.11
2018-09-29T09:40:56.918Z,1018.21
2018-09-29T09:41:56.506Z,1018.24
2018-09-29T09:42:57.414Z,1018.18
2018-09-29T09:43:57.522Z,1018.11
2018-09-29T09:44:56.862Z,1018.02
2018-09-29T09:45:57.953Z,1018.14
2018-09-29T09:46:57.980Z,1018.12
2018-09-29T09:47:57.602Z,1018.03
2018-09-29T09:48:58.210Z,1018.04
2018-09-29T09:49:58.274Z,1017.99
2018-09-29T09:50:57.600Z,1018.01
2018-09-29T09:51:59.138Z,1017.91
2018-09-29T09:52:58.713Z,1017.99
2018-09-29T09:53:58.260Z,1018.06
2018-09-29T09:54:59.074Z,1018.06
2018-09-29T09:55:59.306Z,1018.03
2018-09-29T09:56:58.640Z,1018.00
2018-09-29T09:58:00.041Z,1017.91
2018-09-29T09:59:00.087Z,1018.00
2018-09-29T09:59:59.361Z,1017.91
2018-09-29T10:01:00.636Z,1017.95
2018-09-29T10:02:00.903Z,1018.01
2018-09-29T10:03:00.316Z,1017.96
2018-09-29T10:04:01.724Z,1017.98
2018-09-29T10:05:01.989Z,1017.93
2018-09-29T10:06:01.079Z,1017.87
2018-09-29T10:07:02.380Z,1017.89
2018-09-29T10:08:02.551Z,1017.84
2018-09-29T10:09:02.209Z,1017.89
2018-09-29T10:10:03.211Z,1017.87
2018-09-29T10:11:03.560Z,1017.82
2018-09-29T10:12:03.808Z,1017.82
2018-09-29T10:13:04.129Z,1017.78
2018-09-29T10:14:03.976Z,1017.77
2018-09-29T10:15:04.249Z,1017.84
2018-09-29T10:16:06.249Z,1017.75
2018-09-29T10:17:05.028Z,1017.73
2018-09-29T10:18:05.146Z,1017.74
2018-09-29T10:19:05.581Z,1017.73
2018-09-29T10:20:05.730Z,1017.69
2018-09-29T10:21:05.281Z,1017.69
2018-09-29T10:22:05.567Z,1017.62
2018-09-29T10:23:05.816Z,1017.64
2018-09-29T10:24:06.271Z,1017.63
2018-09-29T10:25:06.866Z,1017.57
2018-09-29T10:26:06.694Z,1017.45
2018-09-29T10:27:06.972Z,1017.55
2018-09-29T10:28:07.501Z,1017.48
2018-09-29T10:29:07.394Z,1017.53
2018-09-29T10:30:07.676Z,1017.51
2018-09-29T10:31:08.236Z,1017.53
2018-09-29T10:32:08.173Z,1017.51
2018-09-29T10:33:08.458Z,1017.46
2018-09-29T10:34:08.737Z,1017.47
2018-09-29T10:35:09.115Z,1017.47
2018-09-29T10:36:09.355Z,1017.43
2018-09-29T10:37:09.733Z,1017.45
2018-09-29T10:38:10.203Z,1017.43
2018-09-29T10:39:10.436Z,1017.45
2018-09-29T10:40:10.640Z,1017.46
2018-09-29T10:41:11.088Z,1017.42
2018-09-29T10:42:11.117Z,1017.41
2018-09-29T10:43:11.514Z,1017.43
2018-09-29T10:44:11.928Z,1017.41
2018-09-29T10:45:12.024Z,1017.46
2018-09-29T10:46:12.516Z,1017.41
2018-09-29T10:47:12.879Z,1017.44
2018-09-29T10:48:13.626Z,1017.37
2018-09-29T10:49:12.872Z,1017.35
2018-09-29T10:50:12.938Z,1017.23
2018-09-29T10:51:13.376Z,1017.21
2018-09-29T10:52:13.689Z,1017.24
2018-09-29T10:53:13.500Z,1017.18
2018-09-29T10:54:14.050Z,1017.25
2018-09-29T10:55:14.530Z,1017.21
2018-09-29T10:56:14.226Z,1017.20
2018-09-29T10:57:14.844Z,1017.20
2018-09-29T10:58:14.979Z,1017.20
2018-09-29T10:59:15.480Z,1017.17
2018-09-29T11:00:15.517Z,1017.24
2018-09-29T11:01:15.879Z,1017.22
2018-09-29T11:02:16.352Z,1017.21
2018-09-29T11:03:16.705Z,1017.23
2018-09-29T11:04:17.110Z,1017.17
2018-09-29T11:05:17.423Z,1017.17
2018-09-29T11:06:17.549Z,1017.20
2018-09-29T11:07:18.044Z,1017.15
2018-09-29T11:08:17.752Z,1017.14
2018-09-29T11:09:18.445Z,1017.22
2018-09-29T11:10:18.689Z,1017.12
2018-09-29T11:11:18.395Z,1017.07
2018-09-29T11:12:19.336Z,1017.11
2018-09-29T11:13:19.220Z,1017.11
2018-09-29T11:14:18.955Z,1017.14
2018-09-29T11:15:19.962Z,1017.05
2018-09-29T11:16:19.801Z,1017.05
2018-09-29T11:17:19.509Z,1017.12
2018-09-29T11:18:20.302Z,1017.03
2018-09-29T11:19:20.863Z,1017.01
2018-09-29T11:20:20.421Z,1017.04
2018-09-29T11:21:20.825Z,1016.92
2018-09-29T11:22:21.290Z,1016.91
2018-09-29T11:23:20.567Z,1016.87
2018-09-29T11:24:21.485Z,1016.97
2018-09-29T11:25:21.886Z,1016.83
2018-09-29T11:26:21.633Z,1016.95
2018-09-29T11:27:22.530Z,1016.88
2018-09-29T11:28:23.047Z,1016.87
2018-09-29T11:29:22.622Z,1016.96
2018-09-29T11:30:23.714Z,1016.81
2018-09-29T11:31:24.085Z,1016.82
2018-09-29T11:32:23.754Z,1016.79
2018-09-29T11:33:24.729Z,1016.74
2018-09-29T11:34:25.382Z,1016.78
2018-09-29T11:35:24.403Z,1016.70
2018-09-29T11:36:25.319Z,1016.61
2018-09-29T11:37:25.738Z,1016.60
2018-09-29T11:38:25.348Z,1016.63
2018-09-29T11:39:26.307Z,1016.61
2018-09-29T11:40:26.520Z,1016.63
2018-09-29T11:41:26.238Z,1016.63
2018-09-29T11:42:27.006Z,1016.50
2018-09-29T11:43:27.258Z,1016.61
2018-09-29T11:44:26.685Z,1016.50
2018-09-29T11:45:28.060Z,1016.52
2018-09-29T11:46:28.649Z,1016.46
2018-09-29T11:47:27.776Z,1016.53
2018-09-29T11:48:28.650Z,1016.36
2018-09-29T11:49:29.447Z,1016.40
2018-09-29T11:50:28.554Z,1016.38
2018-09-29T11:51:29.616Z,1016.36
2018-09-29T11:52:29.351Z,1016.41
2018-09-29T11:53:28.677Z,1016.47
2018-09-29T11:54:30.052Z,1016.37
2018-09-29T11:55:30.404Z,1016.36
2018-09-29T11:56:29.955Z,1016.37
2018-09-29T11:57:31.079Z,1016.39
2018-09-29T11:58:30.893Z,1016.33
2018-09-29T11:59:30.399Z,1016.29
2018-09-29T12:00:31.180Z,1016.27
2018-09-29T12:01:31.446Z,1016.24
2018-09-29T12:02:30.926Z,1016.27
2018-09-29T12:03:32.312Z,1016.26
2018-09-29T12:04:32.652Z,1016.19
2018-09-29T12:05:31.662Z,1016.27
2018-09-29T12:06:32.918Z,1016.26
2018-09-29T12:07:33.357Z,1016.14
2018-09-29T12:08:33.041Z,1016.15
2018-09-29T12:09:33.929Z,1016.07
2018-09-29T12:10:34.368Z,1016.09
2018-09-29T12:11:34.114Z,1016.07
2018-09-29T12:12:35.168Z,1016.03